sensor_id;sensor_type;location;lat;lon;timestamp;pressure;altitude;pressure_sealevel;temperature;humidity
63665;BME280;49820;33.966;73.390;2023-07-31T02:47:37;78355.06;;;22.70;100.00
63665;BME280;49820;33.966;73.390;2023-07-31T02:50:07;78359.53;;;23.14;100.00
63665;BME280;49820;33.966;73.390;2023-07-31T02:52:36;78357.88;;;23.28;100.00
63665;BME280;49820;33.966;73.390;2023-07-31T02:55:06;78365.63;;;23.73;94.20
63665;BME280;49820;33.966;73.390;2023-07-31T02:57:35;78359.19;;;23.95;100.00
63665;BME280;49820;33.966;73.390;2023-07-31T03:00:05;78364.44;;;24.17;94.40
63665;BME280;49820;33.966;73.390;2023-07-31T03:02:35;78378.66;;;24.56;100.00
63665;BME280;49820;33.966;73.390;2023-07-31T03:05:06;78377.31;;;24.83;100.00
63665;BME280;49820;33.966;73.390;2023-07-31T03:07:36;78359.97;;;24.86;85.89
63665;BME280;49820;33.966;73.390;2023-07-31T03:10:06;78369.91;;;25.26;100.00
63665;BME280;49820;33.966;73.390;2023-07-31T03:12:35;78367.38;;;25.41;88.93
63665;BME280;49820;33.966;73.390;2023-07-31T03:15:07;78351.91;;;25.29;85.53
63665;BME280;49820;33.966;73.390;2023-07-31T03:17:37;78379.66;;;26.03;100.00
63665;BME280;49820;33.966;73.390;2023-07-31T03:20:06;78387.72;;;26.13;100.00
63665;BME280;49820;33.966;73.390;2023-07-31T03:22:37;78371.63;;;25.92;81.67
63665;BME280;49820;33.966;73.390;2023-07-31T03:25:06;78388.50;;;26.64;89.38
63665;BME280;49820;33.966;73.390;2023-07-31T03:27:38;78372.09;;;26.46;69.97
63665;BME280;49820;33.966;73.390;2023-07-31T03:30:09;78379.34;;;26.50;76.51
63665;BME280;49820;33.966;73.390;2023-07-31T03:32:38;78374.63;;;26.66;75.18
63665;BME280;49820;33.966;73.390;2023-07-31T03:35:07;78378.41;;;27.12;94.84
63665;BME280;49820;33.966;73.390;2023-07-31T03:37:36;78389.38;;;27.12;67.92
63665;BME280;49820;33.966;73.390;2023-07-31T03:40:07;78386.19;;;27.42;91.37
63665;BME280;49820;33.966;73.390;2023-07-31T03:42:36;78387.47;;;27.43;88.78
63665;BME280;49820;33.966;73.390;2023-07-31T03:45:06;78388.78;;;27.35;68.24
63665;BME280;49820;33.966;73.390;2023-07-31T03:47:35;78389.31;;;27.70;78.18
63665;BME280;49820;33.966;73.390;2023-07-31T03:50:04;78388.16;;;27.34;70.82
63665;BME280;49820;33.966;73.390;2023-07-31T03:52:34;78374.06;;;27.47;95.80
63665;BME280;49820;33.966;73.390;2023-07-31T03:55:04;78367.53;;;27.68;80.41
63665;BME280;49820;33.966;73.390;2023-07-31T03:57:33;78374.47;;;28.23;78.20
63665;BME280;49820;33.966;73.390;2023-07-31T04:00:02;78368.78;;;28.25;90.58
63665;BME280;49820;33.966;73.390;2023-07-31T04:02:38;78376.59;;;28.38;72.00
63665;BME280;49820;33.966;73.390;2023-07-31T04:05:07;78384.84;;;28.62;72.55
63665;BME280;49820;33.966;73.390;2023-07-31T04:07:37;78388.69;;;29.04;86.65
63665;BME280;49820;33.966;73.390;2023-07-31T04:10:07;78390.44;;;29.07;67.09
63665;BME280;49820;33.966;73.390;2023-07-31T04:12:39;78404.94;;;29.14;71.58
63665;BME280;49820;33.966;73.390;2023-07-31T04:15:08;78363.66;;;28.84;75.84
63665;BME280;49820;33.966;73.390;2023-07-31T04:17:38;78400.72;;;29.15;75.35
63665;BME280;49820;33.966;73.390;2023-07-31T04:20:08;78405.56;;;29.00;79.26
63665;BME280;49820;33.966;73.390;2023-07-31T04:22:37;78372.56;;;29.30;85.74
63665;BME280;49820;33.966;73.390;2023-07-31T04:25:07;78406.88;;;30.07;70.57
63665;BME280;49820;33.966;73.390;2023-07-31T04:27:35;78397.44;;;30.34;82.28
63665;BME280;49820;33.966;73.390;2023-07-31T04:30:05;78400.84;;;30.35;72.99
63665;BME280;49820;33.966;73.390;2023-07-31T04:32:35;78404.75;;;29.92;62.48
63665;BME280;49820;33.966;73.390;2023-07-31T04:35:05;78413.59;;;30.02;66.07
63665;BME280;49820;33.966;73.390;2023-07-31T04:37:33;78421.22;;;30.53;77.09
63665;BME280;49820;33.966;73.390;2023-07-31T04:40:03;78424.31;;;30.49;64.39
63665;BME280;49820;33.966;73.390;2023-07-31T04:42:32;78423.41;;;29.62;59.30
63665;BME280;49820;33.966;73.390;2023-07-31T04:45:01;78409.47;;;29.64;62.56
63665;BME280;49820;33.966;73.390;2023-07-31T04:47:30;78419.16;;;30.23;72.52
63665;BME280;49820;33.966;73.390;2023-07-31T04:49:59;78414.69;;;30.42;64.52
63665;BME280;49820;33.966;73.390;2023-07-31T04:52:29;78408.53;;;30.41;65.24
63665;BME280;49820;33.966;73.390;2023-07-31T04:54:59;78398.91;;;29.81;65.04
63665;BME280;49820;33.966;73.390;2023-07-31T04:57:27;78405.94;;;29.11;73.75
63665;BME280;49820;33.966;73.390;2023-07-31T04:59:57;78397.13;;;29.02;63.89
63665;BME280;49820;33.966;73.390;2023-07-31T05:02:25;78410.31;;;29.47;68.67
63665;BME280;49820;33.966;73.390;2023-07-31T05:04:59;78419.72;;;29.26;64.27
63665;BME280;49820;33.966;73.390;2023-07-31T05:07:28;78421.31;;;29.47;65.45
63665;BME280;49820;33.966;73.390;2023-07-31T05:09:57;78422.13;;;28.91;63.93
63665;BME280;49820;33.966;73.390;2023-07-31T05:12:26;78422.16;;;28.43;66.43
63665;BME280;49820;33.966;73.390;2023-07-31T05:14:59;78431.72;;;27.80;72.43
63665;BME280;49820;33.966;73.390;2023-07-31T05:17:29;78420.69;;;27.06;74.33
63665;BME280;49820;33.966;73.390;2023-07-31T05:19:58;78419.13;;;27.33;75.38
63665;BME280;49820;33.966;73.390;2023-07-31T05:22:27;78396.81;;;27.05;77.66
63665;BME280;49820;33.966;73.390;2023-07-31T05:24:57;78435.72;;;26.64;78.82
63665;BME280;49820;33.966;73.390;2023-07-31T05:27:26;78437.66;;;26.66;81.39
63665;BME280;49820;33.966;73.390;2023-07-31T05:29:55;78435.72;;;26.21;82.60
63665;BME280;49820;33.966;73.390;2023-07-31T05:32:24;78433.47;;;26.23;86.54
63665;BME280;49820;33.966;73.390;2023-07-31T05:34:53;78422.19;;;26.62;81.29
63665;BME280;49820;33.966;73.390;2023-07-31T05:37:23;78416.69;;;26.96;79.93
63665;BME280;49820;33.966;73.390;2023-07-31T05:39:52;78432.00;;;27.43;74.64
63665;BME280;49820;33.966;73.390;2023-07-31T05:42:21;78406.47;;;27.62;82.98
63665;BME280;49820;33.966;73.390;2023-07-31T05:44:51;78431.97;;;28.49;89.07
63665;BME280;49820;33.966;73.390;2023-07-31T05:47:19;78415.09;;;29.01;89.67
63665;BME280;49820;33.966;73.390;2023-07-31T05:49:49;78423.44;;;28.68;72.61
63665;BME280;49820;33.966;73.390;2023-07-31T05:52:20;78406.00;;;27.01;72.63
63665;BME280;49820;33.966;73.390;2023-07-31T05:54:49;78414.22;;;27.51;79.73
63665;BME280;49820;33.966;73.390;2023-07-31T05:57:19;78407.47;;;27.82;77.80
63665;BME280;49820;33.966;73.390;2023-07-31T05:59:48;78432.69;;;28.41;81.20
63665;BME280;49820;33.966;73.390;2023-07-31T06:02:16;78428.00;;;28.63;71.61
63665;BME280;49820;33.966;73.390;2023-07-31T06:04:46;78433.59;;;27.49;78.31
63665;BME280;49820;33.966;73.390;2023-07-31T06:07:15;78399.97;;;27.65;73.92
63665;BME280;49820;33.966;73.390;2023-07-31T06:09:47;78435.69;;;27.89;95.45
63665;BME280;49820;33.966;73.390;2023-07-31T06:12:19;78439.06;;;27.98;90.79
63665;BME280;49820;33.966;73.390;2023-07-31T06:14:49;78428.94;;;27.56;84.35
63665;BME280;49820;33.966;73.390;2023-07-31T06:17:18;78424.44;;;28.17;84.15
63665;BME280;49820;33.966;73.390;2023-07-31T06:19:49;78416.41;;;29.17;74.06
63665;BME280;49820;33.966;73.390;2023-07-31T06:22:19;78433.97;;;29.44;68.85
63665;BME280;49820;33.966;73.390;2023-07-31T06:24:47;78428.19;;;28.85;71.02
63665;BME280;49820;33.966;73.390;2023-07-31T06:27:17;78428.00;;;29.87;76.52
63665;BME280;49820;33.966;73.390;2023-07-31T06:29:46;78424.63;;;30.76;76.30
63665;BME280;49820;33.966;73.390;2023-07-31T06:32:16;78427.63;;;29.91;67.46
63665;BME280;49820;33.966;73.390;2023-07-31T06:35:01;78435.00;;;29.71;67.30
63665;BME280;49820;33.966;73.390;2023-07-31T06:37:42;78420.28;;;28.33;71.72
63665;BME280;49820;33.966;73.390;2023-07-31T06:40:12;78432.63;;;29.28;69.95
63665;BME280;49820;33.966;73.390;2023-07-31T06:42:46;78419.00;;;28.80;69.18
63665;BME280;49820;33.966;73.390;2023-07-31T06:45:14;78433.44;;;29.11;71.64
63665;BME280;49820;33.966;73.390;2023-07-31T06:47:47;78428.94;;;28.68;75.49
63665;BME280;49820;33.966;73.390;2023-07-31T06:50:16;78423.50;;;27.80;81.64
63665;BME280;49820;33.966;73.390;2023-07-31T06:52:45;78414.84;;;27.10;81.18
63665;BME280;49820;33.966;73.390;2023-07-31T06:55:20;78435.09;;;26.46;83.74
63665;BME280;49820;33.966;73.390;2023-07-31T06:57:54;78436.22;;;26.15;88.49
63665;BME280;49820;33.966;73.390;2023-07-31T07:00:24;78385.22;;;25.49;92.96
63665;BME280;49820;33.966;73.390;2023-07-31T07:02:53;78414.16;;;26.17;97.01
63665;BME280;49820;33.966;73.390;2023-07-31T07:05:22;78418.19;;;28.97;86.09
63665;BME280;49820;33.966;73.390;2023-07-31T07:07:51;78394.06;;;29.82;85.91
63665;BME280;49820;33.966;73.390;2023-07-31T07:10:21;78428.34;;;30.65;68.41
63665;BME280;49820;33.966;73.390;2023-07-31T07:12:49;78408.06;;;29.86;69.34
63665;BME280;49820;33.966;73.390;2023-07-31T07:15:19;78412.66;;;30.64;83.29
63665;BME280;49820;33.966;73.390;2023-07-31T07:17:48;78380.50;;;30.17;71.63
63665;BME280;49820;33.966;73.390;2023-07-31T07:20:19;78415.28;;;30.73;72.42
63665;BME280;49820;33.966;73.390;2023-07-31T07:22:49;78376.69;;;31.01;69.24
63665;BME280;49820;33.966;73.390;2023-07-31T07:25:17;78381.69;;;29.59;70.06
63665;BME280;49820;33.966;73.390;2023-07-31T07:27:48;78423.06;;;28.01;72.01
63665;BME280;49820;33.966;73.390;2023-07-31T07:30:17;78426.53;;;27.43;78.08
63665;BME280;49820;33.966;73.390;2023-07-31T07:32:46;78400.53;;;27.01;86.17
63665;BME280;49820;33.966;73.390;2023-07-31T07:35:19;78415.75;;;27.32;92.62
63665;BME280;49820;33.966;73.390;2023-07-31T07:37:51;78400.50;;;27.59;79.48
63665;BME280;49820;33.966;73.390;2023-07-31T07:40:20;78416.38;;;26.75;87.68
63665;BME280;49820;33.966;73.390;2023-07-31T07:42:50;78389.91;;;25.51;100.00
63665;BME280;49820;33.966;73.390;2023-07-31T07:45:19;78397.34;;;25.07;100.00
63665;BME280;49820;33.966;73.390;2023-07-31T07:47:48;78426.72;;;24.98;100.00
63665;BME280;49820;33.966;73.390;2023-07-31T07:50:17;78414.72;;;24.76;100.00
63665;BME280;49820;33.966;73.390;2023-07-31T07:52:46;78412.03;;;24.48;100.00
63665;BME280;49820;33.966;73.390;2023-07-31T07:55:15;78408.78;;;24.45;100.00
63665;BME280;49820;33.966;73.390;2023-07-31T07:57:44;78378.28;;;23.95;100.00
63665;BME280;49820;33.966;73.390;2023-07-31T08:00:14;78422.91;;;24.20;100.00
63665;BME280;49820;33.966;73.390;2023-07-31T08:02:43;78420.88;;;23.82;100.00
63665;BME280;49820;33.966;73.390;2023-07-31T08:05:12;78421.78;;;23.40;100.00
63665;BME280;49820;33.966;73.390;2023-07-31T08:07:41;78422.50;;;23.30;100.00
63665;BME280;49820;33.966;73.390;2023-07-31T08:10:10;78412.94;;;23.20;100.00
63665;BME280;49820;33.966;73.390;2023-07-31T08:12:39;78405.16;;;22.95;100.00
63665;BME280;49820;33.966;73.390;2023-07-31T08:15:09;78400.56;;;22.72;100.00
63665;BME280;49820;33.966;73.390;2023-07-31T08:17:42;78400.28;;;22.46;100.00
63665;BME280;49820;33.966;73.390;2023-07-31T08:20:12;78377.28;;;22.24;100.00
63665;BME280;49820;33.966;73.390;2023-07-31T08:22:41;78388.38;;;23.50;100.00
63665;BME280;49820;33.966;73.390;2023-07-31T08:25:10;78389.72;;;23.79;100.00
63665;BME280;49820;33.966;73.390;2023-07-31T08:27:43;78406.88;;;23.39;100.00
63665;BME280;49820;33.966;73.390;2023-07-31T08:30:13;78382.03;;;22.44;100.00
63665;BME280;49820;33.966;73.390;2023-07-31T08:32:41;78374.91;;;21.98;100.00
63665;BME280;49820;33.966;73.390;2023-07-31T08:35:10;78392.41;;;21.80;100.00
63665;BME280;49820;33.966;73.390;2023-07-31T08:37:40;78375.88;;;21.31;100.00
63665;BME280;49820;33.966;73.390;2023-07-31T08:40:09;78386.81;;;20.86;100.00
63665;BME280;49820;33.966;73.390;2023-07-31T08:42:50;78374.28;;;20.26;100.00
63665;BME280;49820;33.966;73.390;2023-07-31T08:45:19;78388.50;;;20.26;100.00
63665;BME280;49820;33.966;73.390;2023-07-31T08:47:51;78381.31;;;19.76;100.00
63665;BME280;49820;33.966;73.390;2023-07-31T08:50:21;78391.50;;;19.75;93.27
63665;BME280;49820;33.966;73.390;2023-07-31T08:52:51;78381.13;;;19.67;97.38
63665;BME280;49820;33.966;73.390;2023-07-31T08:55:23;78360.50;;;19.26;98.87
63665;BME280;49820;33.966;73.390;2023-07-31T08:57:54;78387.47;;;18.92;94.31
63665;BME280;49820;33.966;73.390;2023-07-31T09:00:24;78368.31;;;18.35;100.00
63665;BME280;49820;33.966;73.390;2023-07-31T09:03:03;78383.47;;;17.79;100.00
63665;BME280;49820;33.966;73.390;2023-07-31T09:05:36;78383.06;;;17.47;100.00
63665;BME280;49820;33.966;73.390;2023-07-31T09:08:24;78378.19;;;17.37;100.00
63665;BME280;49820;33.966;73.390;2023-07-31T09:11:12;78368.69;;;17.25;100.00
63665;BME280;49820;33.966;73.390;2023-07-31T09:13:42;78363.16;;;16.87;100.00
63665;BME280;49820;33.966;73.390;2023-07-31T09:16:12;78374.31;;;16.66;100.00
63665;BME280;49820;33.966;73.390;2023-07-31T09:18:54;78349.03;;;16.59;100.00
63665;BME280;49820;33.966;73.390;2023-07-31T09:21:25;78364.63;;;16.71;100.00
63665;BME280;49820;33.966;73.390;2023-07-31T09:23:58;78313.91;;;16.47;100.00
63665;BME280;49820;33.966;73.390;2023-07-31T09:26:37;78370.84;;;17.35;100.00
63665;BME280;49820;33.966;73.390;2023-07-31T09:29:18;78355.88;;;17.51;100.00
63665;BME280;49820;33.966;73.390;2023-07-31T09:31:47;78345.25;;;17.34;100.00
63665;BME280;49820;33.966;73.390;2023-07-31T09:34:16;78352.47;;;17.25;100.00
63665;BME280;49820;33.966;73.390;2023-07-31T09:36:48;78340.31;;;16.99;100.00
63665;BME280;49820;33.966;73.390;2023-07-31T09:39:18;78366.25;;;17.06;100.00
63665;BME280;49820;33.966;73.390;2023-07-31T09:41:54;78373.44;;;16.85;100.00
63665;BME280;49820;33.966;73.390;2023-07-31T09:44:40;78373.50;;;17.10;100.00
63665;BME280;49820;33.966;73.390;2023-07-31T09:47:24;78359.59;;;17.31;100.00
63665;BME280;49820;33.966;73.390;2023-07-31T09:49:54;78333.72;;;17.48;100.00
63665;BME280;49820;33.966;73.390;2023-07-31T09:52:27;78352.78;;;17.72;100.00
63665;BME280;49820;33.966;73.390;2023-07-31T09:54:57;78361.09;;;17.80;100.00
63665;BME280;49820;33.966;73.390;2023-07-31T09:57:30;78349.75;;;17.78;100.00
63665;BME280;49820;33.966;73.390;2023-07-31T10:00:01;78327.78;;;17.59;100.00
63665;BME280;49820;33.966;73.390;2023-07-31T10:02:38;78337.38;;;17.55;100.00
63665;BME280;49820;33.966;73.390;2023-07-31T10:05:08;78353.91;;;17.49;100.00
63665;BME280;49820;33.966;73.390;2023-07-31T10:07:38;78321.69;;;17.20;100.00
63665;BME280;49820;33.966;73.390;2023-07-31T10:10:08;78346.25;;;17.41;100.00
63665;BME280;49820;33.966;73.390;2023-07-31T10:12:39;78358.25;;;17.57;100.00
63665;BME280;49820;33.966;73.390;2023-07-31T10:15:10;78354.03;;;17.60;100.00
63665;BME280;49820;33.966;73.390;2023-07-31T10:17:38;78331.53;;;17.38;100.00
63665;BME280;49820;33.966;73.390;2023-07-31T10:20:09;78345.91;;;17.60;100.00
63665;BME280;49820;33.966;73.390;2023-07-31T10:22:38;78321.75;;;17.71;100.00
63665;BME280;49820;33.966;73.390;2023-07-31T10:25:08;78330.38;;;17.86;100.00
63665;BME280;49820;33.966;73.390;2023-07-31T10:27:40;78315.72;;;17.83;100.00
63665;BME280;49820;33.966;73.390;2023-07-31T10:30:12;78321.41;;;18.02;100.00
63665;BME280;49820;33.966;73.390;2023-07-31T10:32:46;78309.97;;;17.89;100.00
63665;BME280;49820;33.966;73.390;2023-07-31T10:35:21;78312.03;;;17.88;100.00
63665;BME280;49820;33.966;73.390;2023-07-31T10:37:54;78316.44;;;17.94;100.00
63665;BME280;49820;33.966;73.390;2023-07-31T10:40:25;78291.16;;;17.87;100.00
63665;BME280;49820;33.966;73.390;2023-07-31T10:42:56;78333.38;;;18.18;100.00
63665;BME280;49820;33.966;73.390;2023-07-31T10:45:37;78309.75;;;17.80;100.00
63665;BME280;49820;33.966;73.390;2023-07-31T10:48:15;78327.22;;;18.19;100.00
63665;BME280;49820;33.966;73.390;2023-07-31T10:56:00;78302.38;;;18.53;94.48
63665;BME280;49820;33.966;73.390;2023-07-31T10:58:29;78298.91;;;18.67;100.00
63665;BME280;49820;33.966;73.390;2023-07-31T11:01:01;78277.00;;;18.35;100.00
63665;BME280;49820;33.966;73.390;2023-07-31T11:03:47;78314.47;;;18.66;100.00
63665;BME280;49820;33.966;73.390;2023-07-31T11:06:29;78307.09;;;19.01;100.00
63665;BME280;49820;33.966;73.390;2023-07-31T11:08:58;78308.94;;;19.28;84.86
63665;BME280;49820;33.966;73.390;2023-07-31T11:11:28;78311.53;;;19.53;86.13
63665;BME280;49820;33.966;73.390;2023-07-31T11:13:57;78313.13;;;19.71;85.03
63665;BME280;49820;33.966;73.390;2023-07-31T11:16:25;78299.47;;;19.73;88.17
63665;BME280;49820;33.966;73.390;2023-07-31T11:18:55;78270.06;;;19.44;100.00
63665;BME280;49820;33.966;73.390;2023-07-31T11:21:24;78289.44;;;19.49;100.00
63665;BME280;49820;33.966;73.390;2023-07-31T11:23:57;78308.19;;;19.63;100.00
63665;BME280;49820;33.966;73.390;2023-07-31T11:26:27;78314.91;;;19.64;100.00
63665;BME280;49820;33.966;73.390;2023-07-31T11:28:57;78313.94;;;19.70;100.00
63665;BME280;49820;33.966;73.390;2023-07-31T11:31:26;78306.84;;;19.75;100.00
63665;BME280;49820;33.966;73.390;2023-07-31T11:34:05;78288.09;;;19.71;100.00
63665;BME280;49820;33.966;73.390;2023-07-31T11:36:35;78281.19;;;19.85;100.00
63665;BME280;49820;33.966;73.390;2023-07-31T11:39:06;78315.47;;;20.22;100.00
63665;BME280;49820;33.966;73.390;2023-07-31T11:41:36;78302.69;;;20.10;100.00
63665;BME280;49820;33.966;73.390;2023-07-31T11:44:05;78288.31;;;20.01;100.00
63665;BME280;49820;33.966;73.390;2023-07-31T11:46:56;78304.72;;;19.99;100.00
63665;BME280;49820;33.966;73.390;2023-07-31T11:49:26;78282.59;;;19.84;100.00
63665;BME280;49820;33.966;73.390;2023-07-31T11:51:59;78285.84;;;19.97;100.00
63665;BME280;49820;33.966;73.390;2023-07-31T11:54:29;78288.88;;;20.14;100.00
63665;BME280;49820;33.966;73.390;2023-07-31T11:56:58;78280.41;;;20.41;100.00
63665;BME280;49820;33.966;73.390;2023-07-31T11:59:29;78297.75;;;20.78;100.00
63665;BME280;49820;33.966;73.390;2023-07-31T12:01:59;78284.28;;;21.08;100.00
63665;BME280;49820;33.966;73.390;2023-07-31T12:04:28;78287.66;;;21.30;100.00
63665;BME280;49820;33.966;73.390;2023-07-31T12:07:00;78248.69;;;21.33;100.00
63665;BME280;49820;33.966;73.390;2023-07-31T12:09:29;78274.22;;;21.68;100.00
63665;BME280;49820;33.966;73.390;2023-07-31T12:11:58;78240.28;;;21.38;100.00
63665;BME280;49820;33.966;73.390;2023-07-31T12:14:28;78266.19;;;21.66;100.00
63665;BME280;49820;33.966;73.390;2023-07-31T12:17:01;78273.69;;;21.66;100.00
63665;BME280;49820;33.966;73.390;2023-07-31T12:19:32;78255.84;;;20.86;100.00
63665;BME280;49820;33.966;73.390;2023-07-31T12:22:02;78283.13;;;20.84;100.00
63665;BME280;49820;33.966;73.390;2023-07-31T12:24:34;78261.28;;;20.54;100.00
63665;BME280;49820;33.966;73.390;2023-07-31T12:27:09;78292.69;;;21.25;100.00
63665;BME280;49820;33.966;73.390;2023-07-31T12:29:43;78307.56;;;21.26;90.18
63665;BME280;49820;33.966;73.390;2023-07-31T12:32:23;78302.91;;;21.25;79.98
63665;BME280;49820;33.966;73.390;2023-07-31T12:34:53;78287.63;;;21.09;85.54
63665;BME280;49820;33.966;73.390;2023-07-31T12:37:23;78300.84;;;21.04;93.68
63665;BME280;49820;33.966;73.390;2023-07-31T12:39:51;78301.63;;;21.03;85.99
63665;BME280;49820;33.966;73.390;2023-07-31T12:42:20;78301.63;;;21.03;90.37
63665;BME280;49820;33.966;73.390;2023-07-31T12:44:49;78284.28;;;20.76;90.00
63665;BME280;49820;33.966;73.390;2023-07-31T12:47:18;78301.13;;;20.89;90.66
63665;BME280;49820;33.966;73.390;2023-07-31T12:49:47;78311.06;;;21.04;98.15
63665;BME280;49820;33.966;73.390;2023-07-31T12:52:16;78296.06;;;20.73;100.00
63665;BME280;49820;33.966;73.390;2023-07-31T12:54:45;78293.34;;;20.73;100.00
63665;BME280;49820;33.966;73.390;2023-07-31T12:57:14;78317.66;;;21.07;100.00
63665;BME280;49820;33.966;73.390;2023-07-31T12:59:43;78311.34;;;21.00;100.00
63665;BME280;49820;33.966;73.390;2023-07-31T13:02:12;78315.31;;;21.01;100.00
63665;BME280;49820;33.966;73.390;2023-07-31T13:04:45;78330.59;;;21.17;100.00
63665;BME280;49820;33.966;73.390;2023-07-31T13:07:21;78333.97;;;21.17;100.00
63665;BME280;49820;33.966;73.390;2023-07-31T13:09:50;78341.97;;;20.98;100.00
63665;BME280;49820;33.966;73.390;2023-07-31T13:12:19;78281.84;;;20.51;100.00
63665;BME280;49820;33.966;73.390;2023-07-31T13:14:50;78331.09;;;20.77;100.00
63665;BME280;49820;33.966;73.390;2023-07-31T13:17:21;78335.38;;;20.74;100.00
63665;BME280;49820;33.966;73.390;2023-07-31T13:19:50;78329.53;;;20.59;100.00
63665;BME280;49820;33.966;73.390;2023-07-31T13:22:20;78319.66;;;20.32;100.00
63665;BME280;49820;33.966;73.390;2023-07-31T13:24:49;78314.31;;;20.19;100.00
63665;BME280;49820;33.966;73.390;2023-07-31T13:27:18;78328.78;;;20.15;100.00
63665;BME280;49820;33.966;73.390;2023-07-31T13:29:49;78305.09;;;20.03;100.00
63665;BME280;49820;33.966;73.390;2023-07-31T13:32:20;78320.75;;;20.13;100.00
63665;BME280;49820;33.966;73.390;2023-07-31T13:34:49;78336.88;;;20.05;100.00
63665;BME280;49820;33.966;73.390;2023-07-31T13:37:19;78312.25;;;19.75;100.00
63665;BME280;49820;33.966;73.390;2023-07-31T13:39:48;78330.47;;;19.76;100.00
63665;BME280;49820;33.966;73.390;2023-07-31T13:42:17;78319.81;;;19.62;100.00
63665;BME280;49820;33.966;73.390;2023-07-31T13:44:46;78322.59;;;19.49;100.00
63665;BME280;49820;33.966;73.390;2023-07-31T13:47:15;78331.44;;;19.37;100.00
63665;BME280;49820;33.966;73.390;2023-07-31T13:49:44;78333.81;;;19.30;100.00
